sensor_id;sensor_type;location;lat;lon;timestamp;P1;durP1;ratioP1;P2;durP2;ratioP2
21032;SDS011;10675;47.976;7.824;2023-09-18T00:01:37;4.70;;;1.58;;
21032;SDS011;10675;47.976;7.824;2023-09-18T00:04:04;2.45;;;1.35;;
21032;SDS011;10675;47.976;7.824;2023-09-18T00:06:30;4.27;;;1.87;;
21032;SDS011;10675;47.976;7.824;2023-09-18T00:08:56;9.33;;;2.23;;
21032;SDS011;10675;47.976;7.824;2023-09-18T00:11:21;6.20;;;2.60;;
21032;SDS011;10675;47.976;7.824;2023-09-18T00:13:47;5.57;;;2.20;;
21032;SDS011;10675;47.976;7.824;2023-09-18T00:16:12;4.10;;;1.63;;
21032;SDS011;10675;47.976;7.824;2023-09-18T00:18:38;10.63;;;2.33;;
21032;SDS011;10675;47.976;7.824;2023-09-18T00:21:04;8.70;;;2.00;;
21032;SDS011;10675;47.976;7.824;2023-09-18T00:23:31;3.60;;;1.70;;
21032;SDS011;10675;47.976;7.824;2023-09-18T00:26:00;5.47;;;1.95;;
21032;SDS011;10675;47.976;7.824;2023-09-18T00:28:25;4.60;;;2.27;;
21032;SDS011;10675;47.976;7.824;2023-09-18T00:30:51;5.93;;;2.07;;
21032;SDS011;10675;47.976;7.824;2023-09-18T00:33:16;4.40;;;1.70;;
21032;SDS011;10675;47.976;7.824;2023-09-18T00:35:51;3.13;;;1.60;;
21032;SDS011;10675;47.976;7.824;2023-09-18T00:38:17;5.70;;;2.00;;
21032;SDS011;10675;47.976;7.824;2023-09-18T00:40:44;8.35;;;1.83;;
21032;SDS011;10675;47.976;7.824;2023-09-18T00:43:10;4.17;;;2.00;;
21032;SDS011;10675;47.976;7.824;2023-09-18T00:45:38;4.57;;;2.00;;
21032;SDS011;10675;47.976;7.824;2023-09-18T00:48:06;4.53;;;2.00;;
21032;SDS011;10675;47.976;7.824;2023-09-18T00:50:32;4.53;;;2.10;;
21032;SDS011;10675;47.976;7.824;2023-09-18T00:52:58;4.63;;;1.63;;
21032;SDS011;10675;47.976;7.824;2023-09-18T00:55:25;9.23;;;2.03;;
21032;SDS011;10675;47.976;7.824;2023-09-18T00:57:51;7.70;;;2.13;;
21032;SDS011;10675;47.976;7.824;2023-09-18T01:00:17;6.03;;;2.67;;
21032;SDS011;10675;47.976;7.824;2023-09-18T01:02:43;5.37;;;2.10;;
21032;SDS011;10675;47.976;7.824;2023-09-18T01:05:10;5.37;;;2.00;;
21032;SDS011;10675;47.976;7.824;2023-09-18T01:07:35;4.07;;;2.03;;
21032;SDS011;10675;47.976;7.824;2023-09-18T01:10:01;7.05;;;1.95;;
21032;SDS011;10675;47.976;7.824;2023-09-18T01:12:33;9.63;;;1.92;;
21032;SDS011;10675;47.976;7.824;2023-09-18T01:17:45;6.57;;;2.05;;
21032;SDS011;10675;47.976;7.824;2023-09-18T01:20:12;11.03;;;2.27;;
21032;SDS011;10675;47.976;7.824;2023-09-18T01:22:37;4.07;;;2.13;;
21032;SDS011;10675;47.976;7.824;2023-09-18T01:25:03;7.63;;;2.10;;
21032;SDS011;10675;47.976;7.824;2023-09-18T01:27:30;4.87;;;2.07;;
21032;SDS011;10675;47.976;7.824;2023-09-18T01:29:56;6.50;;;2.50;;
21032;SDS011;10675;47.976;7.824;2023-09-18T01:32:23;7.43;;;2.07;;
21032;SDS011;10675;47.976;7.824;2023-09-18T01:34:53;6.27;;;2.03;;
21032;SDS011;10675;47.976;7.824;2023-09-18T01:37:23;5.28;;;2.13;;
21032;SDS011;10675;47.976;7.824;2023-09-18T01:39:50;10.73;;;2.20;;
21032;SDS011;10675;47.976;7.824;2023-09-18T01:42:17;3.80;;;1.77;;
21032;SDS011;10675;47.976;7.824;2023-09-18T01:44:44;12.67;;;2.90;;
21032;SDS011;10675;47.976;7.824;2023-09-18T01:47:11;3.40;;;1.93;;
21032;SDS011;10675;47.976;7.824;2023-09-18T01:49:39;9.77;;;2.38;;
21032;SDS011;10675;47.976;7.824;2023-09-18T01:52:06;10.10;;;2.33;;
21032;SDS011;10675;47.976;7.824;2023-09-18T01:54:33;9.57;;;2.35;;
21032;SDS011;10675;47.976;7.824;2023-09-18T01:56:59;7.87;;;2.77;;
21032;SDS011;10675;47.976;7.824;2023-09-18T01:59:25;6.90;;;2.97;;
21032;SDS011;10675;47.976;7.824;2023-09-18T02:01:51;8.35;;;2.60;;
21032;SDS011;10675;47.976;7.824;2023-09-18T02:04:17;8.90;;;2.93;;
21032;SDS011;10675;47.976;7.824;2023-09-18T02:06:43;9.43;;;2.87;;
21032;SDS011;10675;47.976;7.824;2023-09-18T02:09:09;8.10;;;2.90;;
21032;SDS011;10675;47.976;7.824;2023-09-18T02:11:38;8.30;;;2.60;;
21032;SDS011;10675;47.976;7.824;2023-09-18T02:14:05;9.30;;;3.03;;
21032;SDS011;10675;47.976;7.824;2023-09-18T02:16:34;6.13;;;2.27;;
21032;SDS011;10675;47.976;7.824;2023-09-18T02:19:06;6.77;;;2.73;;
21032;SDS011;10675;47.976;7.824;2023-09-18T02:21:33;8.27;;;2.63;;
21032;SDS011;10675;47.976;7.824;2023-09-18T02:23:59;8.17;;;2.80;;
21032;SDS011;10675;47.976;7.824;2023-09-18T02:26:25;7.77;;;2.97;;
21032;SDS011;10675;47.976;7.824;2023-09-18T02:28:52;10.43;;;3.30;;
21032;SDS011;10675;47.976;7.824;2023-09-18T02:31:18;9.63;;;3.07;;
21032;SDS011;10675;47.976;7.824;2023-09-18T02:33:45;10.93;;;2.60;;
21032;SDS011;10675;47.976;7.824;2023-09-18T02:36:11;8.03;;;3.20;;
21032;SDS011;10675;47.976;7.824;2023-09-18T02:38:37;7.13;;;2.80;;
21032;SDS011;10675;47.976;7.824;2023-09-18T02:41:03;10.63;;;2.77;;
21032;SDS011;10675;47.976;7.824;2023-09-18T02:43:28;5.87;;;2.33;;
21032;SDS011;10675;47.976;7.824;2023-09-18T02:45:54;5.10;;;2.50;;
21032;SDS011;10675;47.976;7.824;2023-09-18T02:48:19;14.83;;;2.60;;
21032;SDS011;10675;47.976;7.824;2023-09-18T02:50:45;7.77;;;2.50;;
21032;SDS011;10675;47.976;7.824;2023-09-18T02:53:18;6.00;;;2.43;;
21032;SDS011;10675;47.976;7.824;2023-09-18T02:55:45;6.17;;;2.17;;
21032;SDS011;10675;47.976;7.824;2023-09-18T02:58:11;7.37;;;2.10;;
21032;SDS011;10675;47.976;7.824;2023-09-18T03:00:41;5.53;;;2.33;;
21032;SDS011;10675;47.976;7.824;2023-09-18T03:03:08;5.50;;;1.97;;
21032;SDS011;10675;47.976;7.824;2023-09-18T03:05:34;5.80;;;2.50;;
21032;SDS011;10675;47.976;7.824;2023-09-18T03:07:59;5.93;;;2.80;;
21032;SDS011;10675;47.976;7.824;2023-09-18T03:10:25;6.87;;;1.93;;
21032;SDS011;10675;47.976;7.824;2023-09-18T03:12:50;3.57;;;2.10;;
21032;SDS011;10675;47.976;7.824;2023-09-18T03:15:16;4.20;;;1.90;;
21032;SDS011;10675;47.976;7.824;2023-09-18T03:17:41;5.43;;;1.63;;
21032;SDS011;10675;47.976;7.824;2023-09-18T03:20:07;4.73;;;1.67;;
21032;SDS011;10675;47.976;7.824;2023-09-18T03:22:34;5.10;;;1.67;;
21032;SDS011;10675;47.976;7.824;2023-09-18T03:24:59;2.37;;;1.30;;
21032;SDS011;10675;47.976;7.824;2023-09-18T03:27:25;4.40;;;1.77;;
21032;SDS011;10675;47.976;7.824;2023-09-18T03:29:54;4.30;;;1.20;;
21032;SDS011;10675;47.976;7.824;2023-09-18T03:32:20;2.00;;;1.03;;
21032;SDS011;10675;47.976;7.824;2023-09-18T03:34:45;3.70;;;1.17;;
21032;SDS011;10675;47.976;7.824;2023-09-18T03:37:11;2.97;;;1.47;;
21032;SDS011;10675;47.976;7.824;2023-09-18T03:39:37;3.57;;;1.27;;
21032;SDS011;10675;47.976;7.824;2023-09-18T03:42:02;1.37;;;0.87;;
21032;SDS011;10675;47.976;7.824;2023-09-18T03:44:28;2.10;;;1.20;;
21032;SDS011;10675;47.976;7.824;2023-09-18T03:46:54;1.83;;;1.00;;
21032;SDS011;10675;47.976;7.824;2023-09-18T03:49:19;2.13;;;1.00;;
21032;SDS011;10675;47.976;7.824;2023-09-18T03:51:45;4.23;;;1.30;;
21032;SDS011;10675;47.976;7.824;2023-09-18T03:54:11;1.20;;;1.07;;
21032;SDS011;10675;47.976;7.824;2023-09-18T03:56:36;1.37;;;0.83;;
21032;SDS011;10675;47.976;7.824;2023-09-18T03:59:02;4.83;;;1.17;;
21032;SDS011;10675;47.976;7.824;2023-09-18T04:01:29;2.10;;;0.83;;
21032;SDS011;10675;47.976;7.824;2023-09-18T04:03:55;1.00;;;0.80;;
21032;SDS011;10675;47.976;7.824;2023-09-18T04:06:21;1.50;;;1.07;;
21032;SDS011;10675;47.976;7.824;2023-09-18T04:08:49;0.80;;;0.80;;
21032;SDS011;10675;47.976;7.824;2023-09-18T04:11:15;2.50;;;0.93;;
21032;SDS011;10675;47.976;7.824;2023-09-18T04:13:40;0.70;;;0.70;;
21032;SDS011;10675;47.976;7.824;2023-09-18T04:16:06;1.77;;;0.70;;
21032;SDS011;10675;47.976;7.824;2023-09-18T04:18:33;0.77;;;0.63;;
21032;SDS011;10675;47.976;7.824;2023-09-18T04:20:58;0.80;;;0.80;;
21032;SDS011;10675;47.976;7.824;2023-09-18T04:23:25;5.23;;;0.93;;
21032;SDS011;10675;47.976;7.824;2023-09-18T04:25:52;2.70;;;0.97;;
21032;SDS011;10675;47.976;7.824;2023-09-18T04:28:20;2.30;;;0.80;;
21032;SDS011;10675;47.976;7.824;2023-09-18T04:30:47;2.00;;;1.07;;
21032;SDS011;10675;47.976;7.824;2023-09-18T04:33:16;2.67;;;0.73;;
21032;SDS011;10675;47.976;7.824;2023-09-18T04:35:42;0.60;;;0.60;;
21032;SDS011;10675;47.976;7.824;2023-09-18T04:38:09;0.83;;;0.83;;
21032;SDS011;10675;47.976;7.824;2023-09-18T04:40:40;1.33;;;0.77;;
21032;SDS011;10675;47.976;7.824;2023-09-18T04:43:05;0.60;;;0.57;;
21032;SDS011;10675;47.976;7.824;2023-09-18T04:45:31;4.50;;;1.00;;
21032;SDS011;10675;47.976;7.824;2023-09-18T04:47:57;1.00;;;0.80;;
21032;SDS011;10675;47.976;7.824;2023-09-18T04:50:23;1.43;;;1.33;;
21032;SDS011;10675;47.976;7.824;2023-09-18T04:52:51;2.10;;;0.93;;
21032;SDS011;10675;47.976;7.824;2023-09-18T04:55:19;1.60;;;0.80;;
21032;SDS011;10675;47.976;7.824;2023-09-18T04:57:44;1.60;;;1.00;;
21032;SDS011;10675;47.976;7.824;2023-09-18T05:00:10;2.70;;;1.20;;
21032;SDS011;10675;47.976;7.824;2023-09-18T05:02:38;2.80;;;0.93;;
21032;SDS011;10675;47.976;7.824;2023-09-18T05:05:04;0.67;;;0.67;;
21032;SDS011;10675;47.976;7.824;2023-09-18T05:07:30;1.87;;;0.80;;
21032;SDS011;10675;47.976;7.824;2023-09-18T05:09:57;1.10;;;0.73;;
21032;SDS011;10675;47.976;7.824;2023-09-18T05:12:23;3.83;;;1.00;;
21032;SDS011;10675;47.976;7.824;2023-09-18T05:14:48;1.03;;;0.63;;
21032;SDS011;10675;47.976;7.824;2023-09-18T05:17:14;1.73;;;0.80;;
21032;SDS011;10675;47.976;7.824;2023-09-18T05:19:41;5.10;;;1.30;;
21032;SDS011;10675;47.976;7.824;2023-09-18T05:22:08;2.60;;;1.10;;
21032;SDS011;10675;47.976;7.824;2023-09-18T05:24:35;2.43;;;1.10;;
21032;SDS011;10675;47.976;7.824;2023-09-18T05:27:01;1.33;;;0.97;;
21032;SDS011;10675;47.976;7.824;2023-09-18T05:29:27;1.77;;;0.80;;
21032;SDS011;10675;47.976;7.824;2023-09-18T05:31:53;4.83;;;1.10;;
21032;SDS011;10675;47.976;7.824;2023-09-18T05:34:18;1.40;;;1.03;;
21032;SDS011;10675;47.976;7.824;2023-09-18T05:36:44;1.80;;;1.07;;
21032;SDS011;10675;47.976;7.824;2023-09-18T05:39:09;1.83;;;1.00;;
21032;SDS011;10675;47.976;7.824;2023-09-18T05:41:37;4.60;;;1.30;;
21032;SDS011;10675;47.976;7.824;2023-09-18T05:44:06;2.57;;;1.27;;
21032;SDS011;10675;47.976;7.824;2023-09-18T05:46:35;4.73;;;1.47;;
21032;SDS011;10675;47.976;7.824;2023-09-18T05:49:01;4.90;;;1.43;;
21032;SDS011;10675;47.976;7.824;2023-09-18T05:51:27;5.30;;;1.20;;
21032;SDS011;10675;47.976;7.824;2023-09-18T05:53:53;1.67;;;1.20;;
21032;SDS011;10675;47.976;7.824;2023-09-18T05:56:18;2.67;;;1.07;;
21032;SDS011;10675;47.976;7.824;2023-09-18T05:58:44;2.90;;;1.50;;
21032;SDS011;10675;47.976;7.824;2023-09-18T06:01:10;4.83;;;1.40;;
21032;SDS011;10675;47.976;7.824;2023-09-18T06:03:35;4.33;;;1.70;;
21032;SDS011;10675;47.976;7.824;2023-09-18T06:06:01;4.60;;;1.17;;
21032;SDS011;10675;47.976;7.824;2023-09-18T06:08:28;1.13;;;0.90;;
21032;SDS011;10675;47.976;7.824;2023-09-18T06:10:55;2.57;;;1.10;;
21032;SDS011;10675;47.976;7.824;2023-09-18T06:13:21;3.33;;;0.83;;
21032;SDS011;10675;47.976;7.824;2023-09-18T06:15:47;1.57;;;1.03;;
21032;SDS011;10675;47.976;7.824;2023-09-18T06:18:12;2.40;;;0.90;;
21032;SDS011;10675;47.976;7.824;2023-09-18T06:20:38;3.30;;;1.10;;
21032;SDS011;10675;47.976;7.824;2023-09-18T06:23:04;3.20;;;0.90;;
21032;SDS011;10675;47.976;7.824;2023-09-18T06:25:30;1.93;;;0.90;;
21032;SDS011;10675;47.976;7.824;2023-09-18T06:27:56;2.97;;;0.90;;
21032;SDS011;10675;47.976;7.824;2023-09-18T06:30:22;1.70;;;1.20;;
21032;SDS011;10675;47.976;7.824;2023-09-18T06:32:47;1.63;;;0.93;;
21032;SDS011;10675;47.976;7.824;2023-09-18T06:35:13;3.30;;;0.90;;
21032;SDS011;10675;47.976;7.824;2023-09-18T06:37:39;0.90;;;0.80;;
21032;SDS011;10675;47.976;7.824;2023-09-18T06:40:04;4.60;;;1.03;;
21032;SDS011;10675;47.976;7.824;2023-09-18T06:42:31;1.83;;;0.87;;
21032;SDS011;10675;47.976;7.824;2023-09-18T06:44:57;1.40;;;0.80;;
21032;SDS011;10675;47.976;7.824;2023-09-18T06:47:23;1.90;;;1.20;;
21032;SDS011;10675;47.976;7.824;2023-09-18T06:49:49;1.37;;;1.10;;
21032;SDS011;10675;47.976;7.824;2023-09-18T06:52:15;2.00;;;1.00;;
21032;SDS011;10675;47.976;7.824;2023-09-18T06:54:41;2.37;;;0.93;;
21032;SDS011;10675;47.976;7.824;2023-09-18T06:57:09;2.43;;;1.00;;
21032;SDS011;10675;47.976;7.824;2023-09-18T06:59:34;3.13;;;1.10;;
21032;SDS011;10675;47.976;7.824;2023-09-18T07:02:00;3.10;;;1.20;;
21032;SDS011;10675;47.976;7.824;2023-09-18T07:04:27;2.30;;;1.00;;
21032;SDS011;10675;47.976;7.824;2023-09-18T07:06:52;2.27;;;1.00;;
21032;SDS011;10675;47.976;7.824;2023-09-18T07:09:18;2.77;;;0.90;;
21032;SDS011;10675;47.976;7.824;2023-09-18T07:11:44;4.63;;;1.10;;
21032;SDS011;10675;47.976;7.824;2023-09-18T07:14:10;2.73;;;0.90;;
21032;SDS011;10675;47.976;7.824;2023-09-18T07:16:36;7.97;;;1.00;;
21032;SDS011;10675;47.976;7.824;2023-09-18T07:19:01;1.27;;;0.80;;
21032;SDS011;10675;47.976;7.824;2023-09-18T07:21:30;2.33;;;1.17;;
21032;SDS011;10675;47.976;7.824;2023-09-18T07:23:55;3.00;;;0.77;;
21032;SDS011;10675;47.976;7.824;2023-09-18T07:26:21;1.97;;;0.93;;
21032;SDS011;10675;47.976;7.824;2023-09-18T07:28:47;2.47;;;1.10;;
21032;SDS011;10675;47.976;7.824;2023-09-18T07:31:13;1.63;;;0.70;;
21032;SDS011;10675;47.976;7.824;2023-09-18T07:33:39;3.97;;;0.87;;
21032;SDS011;10675;47.976;7.824;2023-09-18T07:36:05;1.03;;;0.77;;
21032;SDS011;10675;47.976;7.824;2023-09-18T07:38:31;2.10;;;0.93;;
21032;SDS011;10675;47.976;7.824;2023-09-18T07:40:57;1.30;;;0.80;;
21032;SDS011;10675;47.976;7.824;2023-09-18T07:43:23;1.33;;;0.87;;
21032;SDS011;10675;47.976;7.824;2023-09-18T07:45:49;0.87;;;0.87;;
21032;SDS011;10675;47.976;7.824;2023-09-18T07:48:15;1.87;;;1.00;;
21032;SDS011;10675;47.976;7.824;2023-09-18T07:50:44;2.53;;;0.70;;
21032;SDS011;10675;47.976;7.824;2023-09-18T07:53:10;1.63;;;0.80;;
21032;SDS011;10675;47.976;7.824;2023-09-18T07:55:36;0.93;;;0.90;;
21032;SDS011;10675;47.976;7.824;2023-09-18T07:58:01;1.60;;;0.70;;
21032;SDS011;10675;47.976;7.824;2023-09-18T08:00:28;1.30;;;0.90;;
21032;SDS011;10675;47.976;7.824;2023-09-18T08:02:54;3.03;;;1.20;;
21032;SDS011;10675;47.976;7.824;2023-09-18T08:05:25;2.33;;;1.47;;
21032;SDS011;10675;47.976;7.824;2023-09-18T08:07:56;6.97;;;1.73;;
21032;SDS011;10675;47.976;7.824;2023-09-18T08:10:23;3.30;;;1.80;;
21032;SDS011;10675;47.976;7.824;2023-09-18T08:12:50;3.10;;;1.10;;
21032;SDS011;10675;47.976;7.824;2023-09-18T08:15:17;1.47;;;1.20;;
21032;SDS011;10675;47.976;7.824;2023-09-18T08:17:46;1.97;;;0.80;;
21032;SDS011;10675;47.976;7.824;2023-09-18T08:20:14;1.13;;;0.85;;
21032;SDS011;10675;47.976;7.824;2023-09-18T08:22:40;2.53;;;0.93;;
21032;SDS011;10675;47.976;7.824;2023-09-18T08:25:06;0.90;;;0.90;;
21032;SDS011;10675;47.976;7.824;2023-09-18T08:27:36;2.67;;;1.00;;
21032;SDS011;10675;47.976;7.824;2023-09-18T08:30:07;2.87;;;0.90;;
21032;SDS011;10675;47.976;7.824;2023-09-18T08:32:34;1.10;;;0.83;;
21032;SDS011;10675;47.976;7.824;2023-09-18T08:35:00;0.93;;;0.87;;
21032;SDS011;10675;47.976;7.824;2023-09-18T08:37:27;1.83;;;0.90;;
21032;SDS011;10675;47.976;7.824;2023-09-18T08:39:52;1.30;;;0.70;;
21032;SDS011;10675;47.976;7.824;2023-09-18T08:42:18;1.50;;;0.80;;
21032;SDS011;10675;47.976;7.824;2023-09-18T08:44:48;0.53;;;0.53;;
21032;SDS011;10675;47.976;7.824;2023-09-18T08:47:15;1.60;;;0.60;;
21032;SDS011;10675;47.976;7.824;2023-09-18T08:49:43;0.40;;;0.40;;
21032;SDS011;10675;47.976;7.824;2023-09-18T08:52:10;1.90;;;0.83;;
21032;SDS011;10675;47.976;7.824;2023-09-18T08:54:37;0.50;;;0.50;;
21032;SDS011;10675;47.976;7.824;2023-09-18T08:57:03;0.80;;;0.50;;
21032;SDS011;10675;47.976;7.824;2023-09-18T08:59:33;0.40;;;0.40;;
21032;SDS011;10675;47.976;7.824;2023-09-18T09:01:59;1.03;;;0.70;;
21032;SDS011;10675;47.976;7.824;2023-09-18T09:04:25;1.40;;;0.63;;
21032;SDS011;10675;47.976;7.824;2023-09-18T09:06:51;0.93;;;0.77;;
21032;SDS011;10675;47.976;7.824;2023-09-18T09:09:16;0.60;;;0.60;;
21032;SDS011;10675;47.976;7.824;2023-09-18T09:11:50;0.67;;;0.60;;
21032;SDS011;10675;47.976;7.824;2023-09-18T09:14:16;0.60;;;0.60;;
21032;SDS011;10675;47.976;7.824;2023-09-18T09:16:52;0.57;;;0.57;;
21032;SDS011;10675;47.976;7.824;2023-09-18T09:19:30;0.53;;;0.53;;
21032;SDS011;10675;47.976;7.824;2023-09-18T09:21:56;1.07;;;0.60;;
21032;SDS011;10675;47.976;7.824;2023-09-18T09:24:42;1.17;;;0.70;;
21032;SDS011;10675;47.976;7.824;2023-09-18T09:27:09;0.85;;;0.60;;
21032;SDS011;10675;47.976;7.824;2023-09-18T09:29:35;1.53;;;0.83;;
21032;SDS011;10675;47.976;7.824;2023-09-18T09:32:14;1.40;;;0.60;;
21032;SDS011;10675;47.976;7.824;2023-09-18T09:34:42;0.43;;;0.43;;
21032;SDS011;10675;47.976;7.824;2023-09-18T09:37:09;1.13;;;0.83;;
21032;SDS011;10675;47.976;7.824;2023-09-18T09:39:45;2.03;;;0.90;;
21032;SDS011;10675;47.976;7.824;2023-09-18T09:42:18;1.53;;;0.97;;
21032;SDS011;10675;47.976;7.824;2023-09-18T09:45:00;0.60;;;0.60;;
21032;SDS011;10675;47.976;7.824;2023-09-18T09:47:31;0.70;;;0.70;;
21032;SDS011;10675;47.976;7.824;2023-09-18T09:49:58;0.80;;;0.73;;
21032;SDS011;10675;47.976;7.824;2023-09-18T09:52:23;1.43;;;0.90;;
21032;SDS011;10675;47.976;7.824;2023-09-18T09:54:49;1.50;;;1.10;;
21032;SDS011;10675;47.976;7.824;2023-09-18T09:57:14;0.73;;;0.73;;
21032;SDS011;10675;47.976;7.824;2023-09-18T09:59:40;2.53;;;1.00;;
21032;SDS011;10675;47.976;7.824;2023-09-18T10:02:09;2.03;;;0.87;;
21032;SDS011;10675;47.976;7.824;2023-09-18T10:04:39;0.98;;;0.80;;
21032;SDS011;10675;47.976;7.824;2023-09-18T10:07:06;0.97;;;0.60;;
21032;SDS011;10675;47.976;7.824;2023-09-18T10:09:34;1.17;;;0.73;;
21032;SDS011;10675;47.976;7.824;2023-09-18T10:12:02;1.27;;;0.80;;
21032;SDS011;10675;47.976;7.824;2023-09-18T10:14:32;3.20;;;0.93;;
21032;SDS011;10675;47.976;7.824;2023-09-18T10:17:04;0.43;;;0.43;;
21032;SDS011;10675;47.976;7.824;2023-09-18T10:19:45;1.17;;;0.73;;
21032;SDS011;10675;47.976;7.824;2023-09-18T10:24:54;1.13;;;0.93;;
21032;SDS011;10675;47.976;7.824;2023-09-18T10:27:25;1.10;;;0.80;;
21032;SDS011;10675;47.976;7.824;2023-09-18T10:29:53;2.37;;;0.60;;
21032;SDS011;10675;47.976;7.824;2023-09-18T10:32:19;2.75;;;0.70;;
21032;SDS011;10675;47.976;7.824;2023-09-18T10:34:46;1.83;;;0.77;;
21032;SDS011;10675;47.976;7.824;2023-09-18T10:37:13;0.60;;;0.60;;
21032;SDS011;10675;47.976;7.824;2023-09-18T10:39:40;1.73;;;1.08;;
21032;SDS011;10675;47.976;7.824;2023-09-18T10:42:07;0.73;;;0.70;;
21032;SDS011;10675;47.976;7.824;2023-09-18T10:44:33;0.73;;;0.70;;
21032;SDS011;10675;47.976;7.824;2023-09-18T10:47:00;0.77;;;0.43;;
21032;SDS011;10675;47.976;7.824;2023-09-18T10:49:30;0.73;;;0.60;;
21032;SDS011;10675;47.976;7.824;2023-09-18T10:51:56;0.60;;;0.60;;
21032;SDS011;10675;47.976;7.824;2023-09-18T10:54:24;0.73;;;0.50;;
21032;SDS011;10675;47.976;7.824;2023-09-18T10:56:51;0.50;;;0.50;;
21032;SDS011;10675;47.976;7.824;2023-09-18T10:59:17;4.55;;;0.65;;
21032;SDS011;10675;47.976;7.824;2023-09-18T11:01:43;1.45;;;0.90;;
21032;SDS011;10675;47.976;7.824;2023-09-18T11:04:09;1.30;;;0.73;;
21032;SDS011;10675;47.976;7.824;2023-09-18T11:09:20;0.60;;;0.60;;
21032;SDS011;10675;47.976;7.824;2023-09-18T11:11:52;0.57;;;0.57;;
21032;SDS011;10675;47.976;7.824;2023-09-18T11:14:41;0.77;;;0.70;;
21032;SDS011;10675;47.976;7.824;2023-09-18T11:22:40;1.25;;;0.60;;
21032;SDS011;10675;47.976;7.824;2023-09-18T11:28:22;0.63;;;0.57;;
21032;SDS011;10675;47.976;7.824;2023-09-18T11:30:52;1.38;;;0.80;;
21032;SDS011;10675;47.976;7.824;2023-09-18T11:33:33;0.93;;;0.80;;
21032;SDS011;10675;47.976;7.824;2023-09-18T11:36:06;1.75;;;0.82;;
21032;SDS011;10675;47.976;7.824;2023-09-18T11:38:50;0.70;;;0.70;;
21032;SDS011;10675;47.976;7.824;2023-09-18T11:41:24;0.43;;;0.40;;
21032;SDS011;10675;47.976;7.824;2023-09-18T11:43:51;1.55;;;0.70;;
21032;SDS011;10675;47.976;7.824;2023-09-18T11:46:38;1.05;;;0.80;;
21032;SDS011;10675;47.976;7.824;2023-09-18T11:49:07;0.60;;;0.60;;
21032;SDS011;10675;47.976;7.824;2023-09-18T11:51:35;0.60;;;0.60;;
21032;SDS011;10675;47.976;7.824;2023-09-18T11:54:01;0.88;;;0.57;;
21032;SDS011;10675;47.976;7.824;2023-09-18T11:56:28;1.58;;;0.65;;
21032;SDS011;10675;47.976;7.824;2023-09-18T11:58:54;1.90;;;0.65;;
21032;SDS011;10675;47.976;7.824;2023-09-18T12:01:20;0.50;;;0.50;;
21032;SDS011;10675;47.976;7.824;2023-09-18T12:03:54;0.50;;;0.40;;
21032;SDS011;10675;47.976;7.824;2023-09-18T12:06:20;0.75;;;0.60;;
21032;SDS011;10675;47.976;7.824;2023-09-18T12:08:46;2.90;;;0.85;;
21032;SDS011;10675;47.976;7.824;2023-09-18T12:11:13;0.82;;;0.55;;
21032;SDS011;10675;47.976;7.824;2023-09-18T12:13:42;0.68;;;0.68;;
21032;SDS011;10675;47.976;7.824;2023-09-18T12:16:08;2.90;;;0.70;;
21032;SDS011;10675;47.976;7.824;2023-09-18T12:18:34;1.08;;;0.68;;
21032;SDS011;10675;47.976;7.824;2023-09-18T12:21:05;0.60;;;0.60;;
21032;SDS011;10675;47.976;7.824;2023-09-18T12:23:38;0.68;;;0.68;;
21032;SDS011;10675;47.976;7.824;2023-09-18T12:26:05;0.80;;;0.65;;
21032;SDS011;10675;47.976;7.824;2023-09-18T12:28:37;0.60;;;0.60;;
21032;SDS011;10675;47.976;7.824;2023-09-18T12:31:03;1.23;;;0.60;;
21032;SDS011;10675;47.976;7.824;2023-09-18T12:33:30;1.45;;;0.80;;
21032;SDS011;10675;47.976;7.824;2023-09-18T12:36:00;0.70;;;0.70;;
21032;SDS011;10675;47.976;7.824;2023-09-18T12:38:26;0.80;;;0.57;;
21032;SDS011;10675;47.976;7.824;2023-09-18T12:40:53;0.60;;;0.60;;
21032;SDS011;10675;47.976;7.824;2023-09-18T12:43:20;0.80;;;0.55;;
21032;SDS011;10675;47.976;7.824;2023-09-18T12:45:47;1.92;;;0.52;;
21032;SDS011;10675;47.976;7.824;2023-09-18T12:48:14;0.50;;;0.50;;
21032;SDS011;10675;47.976;7.824;2023-09-18T12:50:40;1.10;;;1.10;;
21032;SDS011;10675;47.976;7.824;2023-09-18T12:53:21;0.63;;;0.63;;
21032;SDS011;10675;47.976;7.824;2023-09-18T12:55:47;1.55;;;0.55;;
21032;SDS011;10675;47.976;7.824;2023-09-18T12:58:17;0.60;;;0.60;;
21032;SDS011;10675;47.976;7.824;2023-09-18T13:00:49;0.68;;;0.68;;
21032;SDS011;10675;47.976;7.824;2023-09-18T13:03:15;0.60;;;0.60;;
21032;SDS011;10675;47.976;7.824;2023-09-18T13:05:41;0.90;;;0.52;;
21032;SDS011;10675;47.976;7.824;2023-09-18T13:08:07;0.75;;;0.65;;
21032;SDS011;10675;47.976;7.824;2023-09-18T13:10:43;2.15;;;0.90;;
21032;SDS011;10675;47.976;7.824;2023-09-18T13:13:16;0.65;;;0.50;;
21032;SDS011;10675;47.976;7.824;2023-09-18T13:15:46;0.60;;;0.60;;
21032;SDS011;10675;47.976;7.824;2023-09-18T13:18:13;0.60;;;0.60;;
21032;SDS011;10675;47.976;7.824;2023-09-18T13:20:41;0.68;;;0.68;;
21032;SDS011;10675;47.976;7.824;2023-09-18T13:23:07;1.58;;;0.70;;
21032;SDS011;10675;47.976;7.824;2023-09-18T13:25:34;0.60;;;0.60;;
21032;SDS011;10675;47.976;7.824;2023-09-18T13:28:01;1.33;;;0.70;;
21032;SDS011;10675;47.976;7.824;2023-09-18T13:30:28;0.63;;;0.63;;
21032;SDS011;10675;47.976;7.824;2023-09-18T13:33:30;1.20;;;0.88;;
21032;SDS011;10675;47.976;7.824;2023-09-18T13:35:49;0.68;;;0.68;;
21032;SDS011;10675;47.976;7.824;2023-09-18T13:38:15;2.10;;;0.73;;
21032;SDS011;10675;47.976;7.824;2023-09-18T13:40:41;0.40;;;0.40;;
21032;SDS011;10675;47.976;7.824;2023-09-18T13:43:08;0.50;;;0.50;;
21032;SDS011;10675;47.976;7.824;2023-09-18T13:45:34;1.20;;;0.73;;
21032;SDS011;10675;47.976;7.824;2023-09-18T13:48:00;0.95;;;0.70;;
21032;SDS011;10675;47.976;7.824;2023-09-18T13:50:31;1.38;;;0.93;;
21032;SDS011;10675;47.976;7.824;2023-09-18T13:52:57;2.17;;;0.80;;
21032;SDS011;10675;47.976;7.824;2023-09-18T13:55:24;1.58;;;0.80;;
21032;SDS011;10675;47.976;7.824;2023-09-18T13:57:50;2.00;;;0.63;;
21032;SDS011;10675;47.976;7.824;2023-09-18T14:00:15;0.60;;;0.60;;
21032;SDS011;10675;47.976;7.824;2023-09-18T14:02:42;1.65;;;0.80;;
21032;SDS011;10675;47.976;7.824;2023-09-18T14:05:07;1.45;;;0.55;;
21032;SDS011;10675;47.976;7.824;2023-09-18T14:07:34;0.73;;;0.73;;
21032;SDS011;10675;47.976;7.824;2023-09-18T14:10:00;1.30;;;0.82;;
21032;SDS011;10675;47.976;7.824;2023-09-18T14:12:29;1.17;;;1.02;;
21032;SDS011;10675;47.976;7.824;2023-09-18T14:14:55;1.13;;;0.80;;
21032;SDS011;10675;47.976;7.824;2023-09-18T14:17:21;2.60;;;0.70;;
21032;SDS011;10675;47.976;7.824;2023-09-18T14:19:47;3.15;;;0.90;;
21032;SDS011;10675;47.976;7.824;2023-09-18T14:22:13;2.00;;;1.00;;
21032;SDS011;10675;47.976;7.824;2023-09-18T14:24:40;1.45;;;0.70;;
21032;SDS011;10675;47.976;7.824;2023-09-18T14:27:06;0.75;;;0.63;;
21032;SDS011;10675;47.976;7.824;2023-09-18T14:29:32;0.82;;;0.80;;
21032;SDS011;10675;47.976;7.824;2023-09-18T14:31:58;2.50;;;0.88;;
21032;SDS011;10675;47.976;7.824;2023-09-18T14:34:24;2.33;;;0.85;;
21032;SDS011;10675;47.976;7.824;2023-09-18T14:36:50;0.73;;;0.73;;
21032;SDS011;10675;47.976;7.824;2023-09-18T14:39:15;0.73;;;0.73;;
21032;SDS011;10675;47.976;7.824;2023-09-18T14:41:41;1.38;;;0.80;;
21032;SDS011;10675;47.976;7.824;2023-09-18T14:44:07;2.60;;;0.90;;
21032;SDS011;10675;47.976;7.824;2023-09-18T14:46:34;1.10;;;1.00;;
21032;SDS011;10675;47.976;7.824;2023-09-18T14:49:02;1.50;;;0.77;;
21032;SDS011;10675;47.976;7.824;2023-09-18T14:51:28;1.10;;;1.00;;
21032;SDS011;10675;47.976;7.824;2023-09-18T14:53:54;1.45;;;0.82;;
21032;SDS011;10675;47.976;7.824;2023-09-18T14:56:20;2.50;;;0.80;;
21032;SDS011;10675;47.976;7.824;2023-09-18T14:58:45;1.85;;;0.88;;
21032;SDS011;10675;47.976;7.824;2023-09-18T15:01:11;2.05;;;0.98;;
21032;SDS011;10675;47.976;7.824;2023-09-18T15:03:38;2.38;;;0.90;;
21032;SDS011;10675;47.976;7.824;2023-09-18T15:06:04;1.55;;;1.00;;